Time;durP1;ratioP1;P1;durP2;ratioP2;P2;SDS_P1;SDS_P2;PMS_P1;PMS_P2;Temp;Humidity;BMP_temperature;BMP_pressure;BME280_temperature;BME280_humidity;BME280_pressure;Samples;Min_cycle;Max_cycle;Signal;HPM_P1;HPM_P2
2024/04/18 00:00:33;;;;;;;0.35;0.35;;;4.90;99.90;;;;;;5552384;25;19981;-70
2024/04/18 00:03:00;;;;;;;0.03;0.03;;;4.80;99.90;;;;;;5541863;25;19996;-70
2024/04/18 00:05:26;;;;;;;0.10;0.10;;;5.10;99.90;;;;;;5535132;25;19992;-70
2024/04/18 00:07:52;;;;;;;0.00;0.00;;;5.20;99.90;;;;;;5548596;25;19997;-70
2024/04/18 00:10:17;;;;;;;0.28;0.25;;;5.10;99.90;;;;;;5536413;25;19986;-70
2024/04/18 00:12:43;;;;;;;0.10;0.10;;;3.70;99.90;;;;;;5534884;25;19993;-69
2024/04/18 00:15:09;;;;;;;0.20;0.20;;;4.90;99.90;;;;;;5535271;25;19990;-69
2024/04/18 00:17:35;;;;;;;0.00;0.00;;;;;;;;;;5534904;25;19989;-70
2024/04/18 00:20:02;;;;;;;0.00;0.00;;;;;;;;;;5535183;25;19989;-69
2024/04/18 00:22:28;;;;;;;1.55;0.60;;;5.00;99.90;;;;;;5534369;25;20013;-69
2024/04/18 00:24:53;;;;;;;0.00;0.00;;;4.80;99.90;;;;;;5535277;25;19989;-69
2024/04/18 00:27:19;;;;;;;0.00;0.00;;;5.00;99.90;;;;;;5547178;25;20205;-69
2024/04/18 00:29:45;;;;;;;0.00;0.00;;;5.10;99.90;;;;;;5540994;25;19996;-69
2024/04/18 00:32:11;;;;;;;0.30;0.30;;;4.90;99.90;;;;;;5534986;25;19985;-69
2024/04/18 00:34:37;;;;;;;0.55;0.35;;;4.90;99.90;;;;;;5503138;25;19997;-69
2024/04/18 00:37:03;;;;;;;0.10;0.10;;;;;;;;;;5534870;25;19990;-69
2024/04/18 00:39:28;;;;;;;1.40;0.43;;;4.80;99.90;;;;;;5538583;25;20007;-69
2024/04/18 00:41:54;;;;;;;0.00;0.00;;;4.80;99.90;;;;;;5534762;25;20190;-70
2024/04/18 00:44:21;;;;;;;0.00;0.00;;;4.70;99.90;;;;;;5547034;25;20057;-68
2024/04/18 00:46:48;;;;;;;0.20;0.20;;;4.80;99.90;;;;;;5535707;25;20001;-68
2024/04/18 00:49:14;;;;;;;0.00;0.00;;;4.80;99.90;;;;;;5534649;25;20075;-69
2024/04/18 00:51:40;;;;;;;1.25;0.40;;;4.90;99.90;;;;;;5534401;25;19991;-69
2024/04/18 00:54:07;;;;;;;1.25;0.32;;;4.70;99.90;;;;;;5534492;25;19993;-69
2024/04/18 00:56:34;;;;;;;0.03;0.03;;;4.90;99.90;;;;;;5534999;25;19989;-69
2024/04/18 00:59:00;;;;;;;0.08;0.08;;;4.70;99.90;;;;;;5551523;25;19991;-69
2024/04/18 01:01:26;;;;;;;1.35;0.43;;;4.90;99.90;;;;;;5550453;25;19996;-70
2024/04/18 01:03:54;;;;;;;0.10;0.10;;;4.80;99.90;;;;;;5535036;25;19996;-69
2024/04/18 01:06:19;;;;;;;0.10;0.10;;;4.80;99.90;;;;;;5534467;25;20045;-70
2024/04/18 01:08:45;;;;;;;0.00;0.00;;;4.80;99.90;;;;;;5536089;25;20000;-70
2024/04/18 01:11:11;;;;;;;1.08;0.30;;;5.00;99.90;;;;;;5503377;26;19992;-70
2024/04/18 01:13:37;;;;;;;0.03;0.03;;;4.60;99.90;;;;;;5535063;25;19992;-70
2024/04/18 01:16:03;;;;;;;0.43;0.28;;;4.90;99.90;;;;;;5534704;25;20048;-70
2024/04/18 01:18:34;;;;;;;0.00;0.00;;;4.70;99.90;;;;;;5536939;25;19994;-70
2024/04/18 01:20:59;;;;;;;0.17;0.17;;;4.80;99.90;;;;;;5557880;25;20056;-70
2024/04/18 01:23:28;;;;;;;0.68;0.57;;;4.90;99.90;;;;;;5534226;25;20523;-69
2024/04/18 01:25:55;;;;;;;0.00;0.00;;;4.70;99.90;;;;;;5533887;25;19997;-69
2024/04/18 01:28:21;;;;;;;0.30;0.30;;;4.90;99.90;;;;;;5542889;25;20028;-70
2024/04/18 01:30:47;;;;;;;1.35;0.32;;;4.90;99.90;;;;;;5539347;25;20201;-70
2024/04/18 01:33:13;;;;;;;0.00;0.00;;;4.90;99.90;;;;;;5533842;25;20049;-70
2024/04/18 01:35:39;;;;;;;0.60;0.25;;;;;;;;;;5500944;25;20001;-69
2024/04/18 01:38:05;;;;;;;0.75;0.30;;;;;;;;;;5533374;25;19993;-70
2024/04/18 01:40:30;;;;;;;0.03;0.03;;;5.00;99.90;;;;;;5501768;25;20053;-71
2024/04/18 01:42:56;;;;;;;0.15;0.15;;;5.00;99.90;;;;;;5533528;25;20001;-69
2024/04/18 01:45:22;;;;;;;0.00;0.00;;;5.00;99.90;;;;;;5533689;25;19989;-71
2024/04/18 01:47:48;;;;;;;0.00;0.00;;;5.00;99.90;;;;;;5533667;25;20463;-71
2024/04/18 01:50:14;;;;;;;0.25;0.25;;;5.00;99.90;;;;;;5533539;25;20406;-71
2024/04/18 01:52:39;;;;;;;0.55;0.22;;;5.10;99.90;;;;;;5548169;25;19985;-69
2024/04/18 01:55:06;;;;;;;0.00;0.00;;;5.00;99.90;;;;;;5533519;25;20053;-69
2024/04/18 01:57:32;;;;;;;0.17;0.17;;;5.10;99.90;;;;;;5534472;25;19998;-69
2024/04/18 01:59:58;;;;;;;3.00;0.65;;;5.10;99.90;;;;;;5536058;25;20031;-69
2024/04/18 02:02:24;;;;;;;0.00;0.00;;;5.10;99.90;;;;;;5549053;25;19997;-69
2024/04/18 02:04:50;;;;;;;0.00;0.00;;;5.00;99.90;;;;;;5501500;25;20071;-69
2024/04/18 02:07:16;;;;;;;0.00;0.00;;;5.00;99.90;;;;;;5533799;25;20002;-70
2024/04/18 02:09:42;;;;;;;0.10;0.10;;;5.00;99.90;;;;;;5548259;25;20001;-69
2024/04/18 02:12:07;;;;;;;0.40;0.25;;;4.80;99.90;;;;;;5533418;25;19990;-69
2024/04/18 02:14:33;;;;;;;0.20;0.20;;;4.90;99.90;;;;;;5471239;25;20183;-70
2024/04/18 02:16:59;;;;;;;0.00;0.00;;;5.10;99.90;;;;;;5533190;25;20005;-68
2024/04/18 02:19:25;;;;;;;1.17;0.35;;;5.00;99.90;;;;;;5533336;25;19998;-69
2024/04/18 02:21:51;;;;;;;0.32;0.32;;;;;;;;;;5536918;25;19993;-69
2024/04/18 02:24:17;;;;;;;0.20;0.20;;;4.70;99.90;;;;;;5495185;26;20008;-70
2024/04/18 02:26:43;;;;;;;0.03;0.03;;;4.80;99.90;;;;;;5531480;25;19993;-70
2024/04/18 02:29:10;;;;;;;0.03;0.03;;;4.80;99.90;;;;;;5533011;25;19986;-70
2024/04/18 02:31:35;;;;;;;4.40;0.55;;;4.60;99.90;;;;;;5537315;25;19997;-70
2024/04/18 02:34:01;;;;;;;0.00;0.00;;;4.80;99.90;;;;;;5555716;25;19993;-70
2024/04/18 02:36:27;;;;;;;0.10;0.10;;;4.80;99.90;;;;;;5533102;25;20038;-69
2024/04/18 02:38:53;;;;;;;0.28;0.28;;;4.70;99.90;;;;;;5521563;25;20087;-68
2024/04/18 02:41:19;;;;;;;0.00;0.00;;;4.90;99.90;;;;;;5532844;25;19995;-69
2024/04/18 02:43:44;;;;;;;1.08;0.35;;;4.80;99.90;;;;;;5533877;25;19994;-69
2024/04/18 02:46:10;;;;;;;0.00;0.00;;;4.90;99.90;;;;;;5534334;25;19989;-69
2024/04/18 02:48:37;;;;;;;0.05;0.05;;;5.00;99.90;;;;;;5536396;25;20012;-69
2024/04/18 02:51:07;;;;;;;0.57;0.57;;;4.90;99.90;;;;;;5507595;26;19996;-71
2024/04/18 02:53:35;;;;;;;0.00;0.00;;;4.80;99.90;;;;;;5536245;25;19997;-72
2024/04/18 02:56:01;;;;;;;0.00;0.00;;;4.90;99.90;;;;;;5536431;25;20065;-69
2024/04/18 02:58:26;;;;;;;0.10;0.10;;;4.70;99.90;;;;;;5550858;25;20004;-67
2024/04/18 03:00:52;;;;;;;0.68;0.30;;;4.70;99.90;;;;;;5551763;25;19992;-70
2024/04/18 03:03:18;;;;;;;0.43;0.43;;;4.80;99.90;;;;;;5504603;26;19992;-70
2024/04/18 03:05:44;;;;;;;0.05;0.05;;;4.90;99.90;;;;;;5536075;25;19992;-71
2024/04/18 03:08:09;;;;;;;0.00;0.00;;;4.70;99.90;;;;;;5535976;25;20277;-70
2024/04/18 03:10:35;;;;;;;0.10;0.10;;;4.70;99.90;;;;;;5540343;25;19981;-71
2024/04/18 03:13:01;;;;;;;0.47;0.40;;;4.50;99.90;;;;;;5535849;25;19982;-70
2024/04/18 03:15:26;;;;;;;0.10;0.10;;;4.50;99.90;;;;;;5551094;25;19984;-71
2024/04/18 03:17:53;;;;;;;0.40;0.32;;;4.50;99.90;;;;;;5547348;25;19989;-72
2024/04/18 03:20:22;;;;;;;0.20;0.17;;;4.50;99.90;;;;;;5535940;25;19989;-71
2024/04/18 03:22:48;;;;;;;1.80;0.80;;;4.50;99.90;;;;;;5535404;25;20257;-70
2024/04/18 03:25:14;;;;;;;0.38;0.10;;;4.50;99.90;;;;;;5535617;25;20098;-69
2024/04/18 03:27:40;;;;;;;3.30;0.30;;;;;;;;;;5535272;25;19993;-70
2024/04/18 03:30:07;;;;;;;0.00;0.00;;;4.50;99.90;;;;;;5535719;25;19998;-70
2024/04/18 03:32:35;;;;;;;0.28;0.10;;;4.60;99.90;;;;;;5535459;25;20054;-70
2024/04/18 03:35:01;;;;;;;0.10;0.10;;;4.70;99.90;;;;;;5535861;25;20057;-70
2024/04/18 03:37:27;;;;;;;0.25;0.20;;;4.80;99.90;;;;;;5534462;25;20000;-71
2024/04/18 03:39:52;;;;;;;0.60;0.60;;;4.60;99.90;;;;;;5536010;25;19989;-71
2024/04/18 03:42:18;;;;;;;1.17;0.30;;;4.60;99.90;;;;;;5534676;25;19989;-72
2024/04/18 03:44:44;;;;;;;1.98;0.65;;;4.50;99.90;;;;;;5534441;25;20206;-72
2024/04/18 03:47:10;;;;;;;0.00;0.00;;;4.50;99.90;;;;;;5546204;25;19985;-71
2024/04/18 03:49:36;;;;;;;0.10;0.10;;;4.40;99.90;;;;;;5539589;25;19985;-71
2024/04/18 03:52:01;;;;;;;0.00;0.00;;;4.50;99.90;;;;;;5518464;26;19992;-69
2024/04/18 03:54:27;;;;;;;0.85;0.25;;;4.50;99.90;;;;;;5535242;25;19997;-70
2024/04/18 03:56:53;;;;;;;3.60;0.55;;;4.60;99.90;;;;;;5534255;25;20058;-69
2024/04/18 03:59:18;;;;;;;0.10;0.10;;;4.60;99.90;;;;;;5534894;25;19981;-70
2024/04/18 04:01:44;;;;;;;0.65;0.50;;;4.60;99.90;;;;;;5535029;25;19990;-70
2024/04/18 04:04:09;;;;;;;0.45;0.45;;;4.60;99.90;;;;;;5535132;25;20233;-68
2024/04/18 04:06:35;;;;;;;0.43;0.13;;;4.70;99.90;;;;;;5534899;25;20548;-68
2024/04/18 04:09:01;;;;;;;1.15;0.32;;;4.70;99.90;;;;;;5549492;25;20505;-69
2024/04/18 04:11:26;;;;;;;0.05;0.00;;;4.70;99.90;;;;;;5534848;25;20025;-69
2024/04/18 04:13:52;;;;;;;0.00;0.00;;;4.70;99.90;;;;;;5534538;25;20039;-69
2024/04/18 04:16:18;;;;;;;0.38;0.08;;;4.60;99.90;;;;;;5534803;25;20019;-70
2024/04/18 04:18:45;;;;;;;0.43;0.20;;;4.60;99.90;;;;;;5552133;25;20043;-70
2024/04/18 04:21:11;;;;;;;0.73;0.55;;;4.70;99.90;;;;;;5477329;26;20014;-69
2024/04/18 04:23:37;;;;;;;0.10;0.10;;;4.60;99.90;;;;;;5530512;25;20000;-68
2024/04/18 04:26:02;;;;;;;0.00;0.00;;;4.70;99.90;;;;;;5535652;25;20004;-67
2024/04/18 04:28:28;;;;;;;0.40;0.40;;;4.80;99.90;;;;;;5539544;25;20004;-68
2024/04/18 04:30:54;;;;;;;0.20;0.20;;;4.70;99.90;;;;;;5534774;25;20190;-68
2024/04/18 04:33:19;;;;;;;0.15;0.10;;;4.70;99.90;;;;;;5547853;25;20004;-68
2024/04/18 04:35:45;;;;;;;0.30;0.30;;;4.80;99.90;;;;;;5503040;25;20001;-68
2024/04/18 04:38:11;;;;;;;0.30;0.30;;;4.80;99.90;;;;;;5548015;25;20614;-68
2024/04/18 04:40:36;;;;;;;0.00;0.00;;;4.80;99.90;;;;;;5534558;25;19994;-72
2024/04/18 04:43:02;;;;;;;4.80;0.52;;;4.80;99.90;;;;;;5494576;26;19991;-70
2024/04/18 04:45:28;;;;;;;2.17;0.57;;;4.80;99.90;;;;;;5528469;25;20205;-71
2024/04/18 04:47:54;;;;;;;0.32;0.20;;;4.80;99.90;;;;;;5544170;25;19989;-69
2024/04/18 04:50:22;;;;;;;0.25;0.25;;;4.80;99.90;;;;;;5543165;25;20198;-69
2024/04/18 04:52:48;;;;;;;0.10;0.10;;;4.80;99.90;;;;;;5534483;25;21198;-67
2024/04/18 04:55:14;;;;;;;0.13;0.13;;;4.80;99.90;;;;;;5548390;25;19986;-68
2024/04/18 04:57:40;;;;;;;0.30;0.22;;;5.00;99.90;;;;;;5534018;25;20021;-67
2024/04/18 05:00:06;;;;;;;0.10;0.10;;;4.90;99.90;;;;;;5559204;25;19996;-66
2024/04/18 05:02:31;;;;;;;0.10;0.10;;;5.00;99.90;;;;;;5548269;25;19986;-68
2024/04/18 05:04:57;;;;;;;2.65;0.77;;;5.20;99.90;;;;;;5549248;25;20041;-67
2024/04/18 05:07:23;;;;;;;0.25;0.25;;;5.10;99.90;;;;;;5556920;25;19985;-67
2024/04/18 05:09:49;;;;;;;0.52;0.30;;;5.20;99.90;;;;;;5535177;25;20059;-66
2024/04/18 05:12:14;;;;;;;0.80;0.38;;;5.30;99.90;;;;;;5542216;25;19998;-66
2024/04/18 05:14:43;;;;;;;0.10;0.10;;;5.60;99.90;;;;;;5472744;25;20205;-67
2024/04/18 05:17:09;;;;;;;0.00;0.00;;;5.40;99.90;;;;;;5517984;26;20041;-67
2024/04/18 05:19:35;;;;;;;0.10;0.10;;;5.50;99.90;;;;;;5541494;25;20400;-66
2024/04/18 05:22:01;;;;;;;2.55;0.68;;;;;;;;;;5534191;25;20202;-65
2024/04/18 05:24:27;;;;;;;0.25;0.08;;;5.60;99.90;;;;;;5534261;25;20091;-68
2024/04/18 05:26:52;;;;;;;0.50;0.28;;;5.80;99.90;;;;;;5537578;25;20033;-67
2024/04/18 05:32:02;;;;;;;0.38;0.38;;;5.70;99.90;;;;;;5534259;25;20005;-68
2024/04/18 05:34:30;;;;;;;0.60;0.40;;;4.20;99.90;;;;;;5546992;25;20348;-68
2024/04/18 05:36:56;;;;;;;0.00;0.00;;;5.80;99.90;;;;;;5534142;25;20025;-68
2024/04/18 05:39:21;;;;;;;2.13;0.95;;;5.80;99.90;;;;;;5536944;25;19989;-68
2024/04/18 05:41:47;;;;;;;0.30;0.30;;;5.80;99.90;;;;;;5473008;25;20094;-68
2024/04/18 05:44:13;;;;;;;0.00;0.00;;;6.10;99.90;;;;;;5533816;25;19986;-70
2024/04/18 05:46:39;;;;;;;0.10;0.10;;;5.80;99.90;;;;;;5549109;25;20045;-69
2024/04/18 05:49:05;;;;;;;0.10;0.10;;;5.90;99.90;;;;;;5533680;25;20045;-65
2024/04/18 05:51:31;;;;;;;3.47;0.98;;;5.90;99.90;;;;;;5548739;25;20293;-66
2024/04/18 05:53:56;;;;;;;0.13;0.13;;;5.80;99.90;;;;;;5531693;25;19986;-67
2024/04/18 05:56:22;;;;;;;0.20;0.20;;;5.90;99.90;;;;;;5532311;25;19985;-67
2024/04/18 05:58:48;;;;;;;0.28;0.28;;;6.00;99.90;;;;;;5537488;25;20210;-67
2024/04/18 06:01:14;;;;;;;0.22;0.20;;;;;;;;;;5543081;25;19985;-67
2024/04/18 06:03:41;;;;;;;0.30;0.30;;;;;;;;;;5501365;25;20005;-67
2024/04/18 06:06:07;;;;;;;0.80;0.22;;;;;;;;;;5501479;26;19989;-68
2024/04/18 06:08:33;;;;;;;0.17;0.13;;;6.10;99.90;;;;;;5516375;25;20013;-69
2024/04/18 06:10:58;;;;;;;0.15;0.15;;;6.00;99.90;;;;;;5480527;26;20051;-68
2024/04/18 06:13:25;;;;;;;0.10;0.10;;;;;;;;;;5547302;25;19996;-66
2024/04/18 06:15:51;;;;;;;1.63;0.60;;;;;;;;;;5538836;25;19989;-67
2024/04/18 06:18:17;;;;;;;0.10;0.05;;;6.30;99.90;;;;;;5545705;25;20048;-66
2024/04/18 06:20:45;;;;;;;0.30;0.17;;;6.50;99.90;;;;;;5534801;25;19997;-69
2024/04/18 06:23:11;;;;;;;2.05;1.20;;;6.30;99.90;;;;;;5550110;25;19992;-68
2024/04/18 06:25:37;;;;;;;4.72;1.10;;;6.50;99.90;;;;;;5537834;25;19993;-68
2024/04/18 06:28:21;;;;;;;0.70;0.68;;;6.60;99.90;;;;;;5536937;25;20093;-68
2024/04/18 06:30:47;;;;;;;0.30;0.17;;;6.60;99.90;;;;;;5499713;25;19990;-68
2024/04/18 06:33:13;;;;;;;1.25;0.65;;;6.50;99.90;;;;;;5475052;26;20001;-67
2024/04/18 06:35:39;;;;;;;0.28;0.28;;;;;;;;;;5543850;25;20057;-68
2024/04/18 06:38:06;;;;;;;1.75;0.40;;;6.60;99.90;;;;;;5485480;25;19990;-66
2024/04/18 06:40:32;;;;;;;0.38;0.25;;;;;;;;;;5538455;25;19985;-66
2024/04/18 06:42:57;;;;;;;0.73;0.73;;;6.40;99.90;;;;;;5532758;25;20045;-69
2024/04/18 06:45:24;;;;;;;0.43;0.43;;;6.60;99.90;;;;;;5532517;25;19985;-66
2024/04/18 06:47:50;;;;;;;0.10;0.10;;;6.90;99.90;;;;;;5550408;25;19981;-68
2024/04/18 06:50:17;;;;;;;0.30;0.30;;;6.80;99.90;;;;;;5510503;26;19989;-67
2024/04/18 06:52:42;;;;;;;1.85;0.20;;;6.90;99.90;;;;;;5532378;25;19982;-68
2024/04/18 06:55:08;;;;;;;0.85;0.63;;;7.10;99.90;;;;;;5547951;25;20152;-68
2024/04/18 06:57:34;;;;;;;0.10;0.10;;;7.20;99.90;;;;;;5539713;25;20046;-67
2024/04/18 07:00:00;;;;;;;3.00;0.68;;;7.40;99.90;;;;;;5477742;26;20312;-67
2024/04/18 07:02:25;;;;;;;2.75;0.65;;;7.50;99.90;;;;;;5531918;25;19995;-67
2024/04/18 07:04:51;;;;;;;0.30;0.30;;;7.50;99.90;;;;;;5500620;25;20194;-67
2024/04/18 07:07:17;;;;;;;0.25;0.25;;;7.50;99.90;;;;;;5534827;25;19989;-68
2024/04/18 07:09:42;;;;;;;0.17;0.17;;;7.60;99.90;;;;;;5541903;25;19986;-68
2024/04/18 07:12:08;;;;;;;0.10;0.10;;;;;;;;;;5540072;25;20355;-68
2024/04/18 07:14:34;;;;;;;0.85;0.32;;;;;;;;;;5501363;25;20050;-68
2024/04/18 07:17:00;;;;;;;0.10;0.10;;;;;;;;;;5532238;25;19990;-68
2024/04/18 07:19:26;;;;;;;1.13;0.70;;;;;;;;;;5531993;25;19989;-67
2024/04/18 07:21:52;;;;;;;1.17;0.82;;;8.30;99.90;;;;;;5500391;25;20000;-68
2024/04/18 07:24:18;;;;;;;0.20;0.20;;;8.40;99.90;;;;;;5500607;26;19993;-68
2024/04/18 07:26:43;;;;;;;0.40;0.40;;;8.50;99.90;;;;;;5535757;25;20008;-68
2024/04/18 07:29:09;;;;;;;0.15;0.15;;;8.50;99.90;;;;;;5558891;25;20009;-68
2024/04/18 07:31:35;;;;;;;0.10;0.10;;;8.30;99.90;;;;;;5472376;25;20001;-68
2024/04/18 07:34:01;;;;;;;0.17;0.17;;;8.30;99.90;;;;;;5552161;25;19986;-68
2024/04/18 07:36:26;;;;;;;0.20;0.20;;;8.60;99.90;;;;;;5539904;25;20138;-68
2024/04/18 07:38:52;;;;;;;0.32;0.28;;;8.60;99.90;;;;;;5504017;25;20400;-68
2024/04/18 07:41:18;;;;;;;0.15;0.15;;;8.70;99.90;;;;;;5540296;25;19989;-68
2024/04/18 07:43:44;;;;;;;0.40;0.17;;;9.10;99.90;;;;;;5553192;25;19988;-67
2024/04/18 07:46:12;;;;;;;0.75;0.75;;;9.00;97.10;;;;;;5493295;26;20190;-68
2024/04/18 07:48:39;;;;;;;0.40;0.40;;;9.30;96.50;;;;;;5538345;25;19989;-67
2024/04/18 07:51:05;;;;;;;1.38;0.47;;;;;;;;;;5516359;26;20300;-67
2024/04/18 07:53:31;;;;;;;0.50;0.50;;;;;;;;;;5535429;25;20143;-68
2024/04/18 07:55:56;;;;;;;0.28;0.28;;;9.60;94.80;;;;;;5535602;25;19985;-68
2024/04/18 07:58:23;;;;;;;0.88;0.80;;;9.70;95.00;;;;;;5535401;25;20000;-68
2024/04/18 08:00:50;;;;;;;0.68;0.68;;;9.90;95.00;;;;;;5535317;25;20585;-70
2024/04/18 08:03:16;;;;;;;1.02;0.95;;;10.00;94.40;;;;;;5554013;25;19989;-68
2024/04/18 08:05:42;;;;;;;2.90;0.65;;;10.20;94.40;;;;;;5542053;25;19990;-68
2024/04/18 08:08:08;;;;;;;0.47;0.47;;;10.40;94.40;;;;;;5547307;25;20049;-68
2024/04/18 08:10:34;;;;;;;0.40;0.35;;;10.50;94.90;;;;;;5535170;25;20001;-68
2024/04/18 08:13:00;;;;;;;0.10;0.10;;;10.70;92.50;;;;;;5542710;25;19996;-68
2024/04/18 08:15:25;;;;;;;0.30;0.30;;;10.70;94.50;;;;;;5540526;25;19989;-68
2024/04/18 08:17:51;;;;;;;0.25;0.22;;;10.90;92.60;;;;;;5534922;25;20182;-68
2024/04/18 08:20:17;;;;;;;0.57;0.38;;;10.90;92.70;;;;;;5535310;25;19986;-68
2024/04/18 08:22:43;;;;;;;0.60;0.60;;;10.90;91.00;;;;;;5539127;25;20002;-68
2024/04/18 08:25:09;;;;;;;0.75;0.47;;;11.10;91.30;;;;;;5546573;25;20184;-68
2024/04/18 08:27:35;;;;;;;0.22;0.22;;;11.50;98.60;;;;;;5534855;25;20000;-68
2024/04/18 08:30:02;;;;;;;0.20;0.20;;;11.50;89.70;;;;;;5535236;25;19989;-68
2024/04/18 08:32:27;;;;;;;0.43;0.43;;;11.60;88.40;;;;;;5535264;25;19994;-69
2024/04/18 08:34:54;;;;;;;0.40;0.40;;;11.70;87.10;;;;;;5534673;25;20045;-68
2024/04/18 08:37:20;;;;;;;3.88;0.73;;;11.80;86.90;;;;;;5534630;25;20008;-68
2024/04/18 08:39:45;;;;;;;0.03;0.03;;;12.00;86.50;;;;;;5547457;25;19994;-68
2024/04/18 08:42:16;;;;;;;0.75;0.75;;;12.20;85.70;;;;;;5550341;25;19989;-68
2024/04/18 08:44:41;;;;;;;0.47;0.47;;;12.30;83.50;;;;;;5536916;25;19996;-68
2024/04/18 08:47:08;;;;;;;1.90;0.55;;;12.40;82.70;;;;;;5535035;25;20001;-68
2024/04/18 08:49:38;;;;;;;0.40;0.40;;;12.40;83.40;;;;;;5509475;25;19996;-68
2024/04/18 08:52:09;;;;;;;0.52;0.28;;;12.40;94.40;;;;;;5533760;25;19985;-68
2024/04/18 08:54:35;;;;;;;0.20;0.20;;;12.40;92.90;;;;;;5534649;25;19986;-68
2024/04/18 08:57:04;;;;;;;0.30;0.30;;;12.80;94.50;;;;;;5543350;25;19988;-68
2024/04/18 08:59:30;;;;;;;0.38;0.38;;;12.40;81.80;;;;;;5540365;25;19993;-68
2024/04/18 09:01:56;;;;;;;0.32;0.32;;;12.40;82.00;;;;;;5537402;25;19996;-68
2024/04/18 09:04:22;;;;;;;0.20;0.20;;;12.30;81.00;;;;;;5534444;25;20193;-68
2024/04/18 09:06:47;;;;;;;2.83;0.60;;;12.30;81.60;;;;;;5535346;25;19999;-69
2024/04/18 09:09:18;;;;;;;0.45;0.38;;;12.40;81.60;;;;;;5546881;25;20000;-68
2024/04/18 09:11:47;;;;;;;0.10;0.10;;;12.50;79.90;;;;;;5536047;25;20004;-70
2024/04/18 09:14:12;;;;;;;0.70;0.55;;;12.70;92.90;;;;;;5549071;25;19985;-69
2024/04/18 09:16:38;;;;;;;0.28;0.28;;;12.90;91.70;;;;;;5511829;25;20089;-68
2024/04/18 09:19:04;;;;;;;0.30;0.30;;;12.90;75.40;;;;;;5534457;25;20038;-68
2024/04/18 09:21:30;;;;;;;0.80;0.40;;;13.00;76.30;;;;;;5534613;25;20023;-68
2024/04/18 09:23:57;;;;;;;0.20;0.20;;;13.10;90.40;;;;;;5540133;25;19985;-69
2024/04/18 09:26:28;;;;;;;0.10;0.10;;;13.30;90.50;;;;;;5538246;25;19996;-69
2024/04/18 09:28:57;;;;;;;0.20;0.20;;;13.30;89.10;;;;;;5534130;25;20004;-68
2024/04/18 09:31:27;;;;;;;0.57;0.57;;;13.30;89.40;;;;;;5548900;25;19988;-68
2024/04/18 09:33:53;;;;;;;0.10;0.10;;;13.20;89.50;;;;;;5534305;25;19997;-68
2024/04/18 09:36:19;;;;;;;0.80;0.38;;;13.30;88.40;;;;;;5534303;25;19985;-68
2024/04/18 09:38:49;;;;;;;0.15;0.15;;;13.40;88.90;;;;;;5533913;25;20001;-68
2024/04/18 09:41:30;;;;;;;0.35;0.20;;;13.70;86.70;;;;;;5537159;25;19993;-68
2024/04/18 09:44:14;;;;;;;0.00;0.00;;;13.50;86.10;;;;;;5534025;25;19985;-68
2024/04/18 09:46:45;;;;;;;2.40;0.57;;;13.80;85.70;;;;;;5533991;25;20009;-69
2024/04/18 09:49:11;;;;;;;0.85;0.68;;;13.70;85.10;;;;;;5550197;25;19993;-68
2024/04/18 09:51:39;;;;;;;0.57;0.57;;;14.00;85.40;;;;;;5501847;25;20053;-68
2024/04/18 09:54:05;;;;;;;0.60;0.32;;;14.10;83.30;;;;;;5532910;25;20325;-69
2024/04/18 09:56:33;;;;;;;0.10;0.10;;;13.50;85.50;;;;;;5531787;25;19993;-69
2024/04/18 09:59:00;;;;;;;0.20;0.20;;;13.40;83.30;;;;;;5533918;25;20157;-69
2024/04/18 10:01:26;;;;;;;0.10;0.10;;;13.30;85.50;;;;;;5533779;25;19999;-68
2024/04/18 10:03:51;;;;;;;0.30;0.30;;;14.00;84.40;;;;;;5533217;25;20004;-68
2024/04/18 10:06:22;;;;;;;0.13;0.13;;;13.90;67.70;;;;;;5550106;25;20131;-68
2024/04/18 10:08:50;;;;;;;0.25;0.25;;;13.30;84.20;;;;;;5533548;25;20210;-68
2024/04/18 10:11:20;;;;;;;0.10;0.10;;;13.40;84.00;;;;;;5533702;25;20097;-68
2024/04/18 10:13:46;;;;;;;0.40;0.38;;;13.60;65.50;;;;;;5533349;25;20025;-68
2024/04/18 10:16:13;;;;;;;0.10;0.10;;;13.80;82.40;;;;;;5540323;25;19989;-68
2024/04/18 10:18:40;;;;;;;0.35;0.35;;;14.00;82.00;;;;;;5533419;25;19993;-68
2024/04/18 10:21:08;;;;;;;0.43;0.32;;;14.10;81.70;;;;;;5537370;25;19996;-66
2024/04/18 10:23:33;;;;;;;0.10;0.10;;;14.60;81.50;;;;;;5517858;25;19982;-67
2024/04/18 10:25:59;;;;;;;0.10;0.10;;;14.40;64.30;;;;;;5532647;25;20208;-67
2024/04/18 10:28:26;;;;;;;0.30;0.30;;;14.60;63.70;;;;;;5537000;25;19985;-67
2024/04/18 10:30:59;;;;;;;0.10;0.10;;;14.80;63.80;;;;;;5532237;25;19989;-68
2024/04/18 10:33:31;;;;;;;0.20;0.20;;;15.00;62.40;;;;;;5531456;25;19997;-68
2024/04/18 10:35:57;;;;;;;0.15;0.15;;;15.10;62.20;;;;;;5531004;25;20106;-67
2024/04/18 10:38:27;;;;;;;0.25;0.25;;;15.30;61.80;;;;;;5528850;25;20016;-68
2024/04/18 10:40:59;;;;;;;0.10;0.10;;;15.20;62.00;;;;;;5545445;25;19986;-67
2024/04/18 10:43:27;;;;;;;0.22;0.20;;;15.00;61.50;;;;;;5531651;25;20036;-67
2024/04/18 10:45:56;;;;;;;0.20;0.20;;;14.50;62.10;;;;;;5470388;25;20000;-67
2024/04/18 10:48:22;;;;;;;0.13;0.13;;;14.00;64.00;;;;;;5532209;25;19989;-67
2024/04/18 10:50:49;;;;;;;0.30;0.15;;;14.20;63.90;;;;;;5470279;25;20010;-67
2024/04/18 10:53:15;;;;;;;0.20;0.20;;;14.60;63.80;;;;;;5532412;25;20000;-67
2024/04/18 10:55:41;;;;;;;0.10;0.10;;;15.10;62.10;;;;;;5552086;25;20101;-67
2024/04/18 10:58:10;;;;;;;0.13;0.05;;;14.80;82.90;;;;;;5544775;25;19989;-68
2024/04/18 11:00:40;;;;;;;1.23;0.40;;;14.80;61.60;;;;;;5532524;25;19985;-67
2024/04/18 11:03:06;;;;;;;0.10;0.10;;;14.40;62.60;;;;;;5532645;25;20027;-67
2024/04/18 11:05:31;;;;;;;0.10;0.10;;;14.20;62.90;;;;;;5532399;25;20234;-67
2024/04/18 11:07:57;;;;;;;0.38;0.38;;;14.00;62.70;;;;;;5535366;25;19990;-67
2024/04/18 11:10:27;;;;;;;0.10;0.10;;;14.00;62.80;;;;;;5536280;25;20002;-67
2024/04/18 11:12:56;;;;;;;0.22;0.22;;;13.90;62.50;;;;;;5495116;25;19999;-67
2024/04/18 11:15:23;;;;;;;0.30;0.30;;;13.70;62.70;;;;;;5549073;25;20082;-67
2024/04/18 11:17:49;;;;;;;0.40;0.40;;;13.70;61.80;;;;;;5550386;25;19997;-67
2024/04/18 11:20:15;;;;;;;0.57;0.28;;;13.70;62.80;;;;;;5536879;25;19989;-70
2024/04/18 11:22:41;;;;;;;0.45;0.38;;;14.70;81.60;;;;;;5535824;25;20198;-69
2024/04/18 11:25:07;;;;;;;0.52;0.47;;;14.90;60.50;;;;;;5536083;25;19992;-69
2024/04/18 11:27:37;;;;;;;0.10;0.00;;;15.10;59.30;;;;;;5473530;25;20269;-69
2024/04/18 11:30:07;;;;;;;0.32;0.15;;;15.00;59.80;;;;;;5545589;25;20076;-69
2024/04/18 11:32:33;;;;;;;0.17;0.17;;;15.20;59.70;;;;;;5556658;25;19989;-69
2024/04/18 11:34:59;;;;;;;0.20;0.20;;;15.00;77.30;;;;;;5504203;26;20046;-69
2024/04/18 11:37:25;;;;;;;0.03;0.03;;;15.10;59.50;;;;;;5535809;25;19990;-69
2024/04/18 11:39:55;;;;;;;0.10;0.10;;;14.70;59.60;;;;;;5535693;25;20173;-69
2024/04/18 11:42:20;;;;;;;0.40;0.40;;;14.30;60.10;;;;;;5538940;25;20259;-69
2024/04/18 11:44:46;;;;;;;0.60;0.20;;;14.40;60.70;;;;;;5542087;25;20336;-70
2024/04/18 11:47:12;;;;;;;0.57;0.57;;;15.20;75.00;;;;;;5548034;25;19985;-70
2024/04/18 11:49:38;;;;;;;0.30;0.10;;;15.20;74.40;;;;;;5542906;25;19990;-69
2024/04/18 11:52:03;;;;;;;0.10;0.10;;;14.80;75.50;;;;;;5535815;25;20205;-69
2024/04/18 11:54:31;;;;;;;0.13;0.13;;;14.90;58.70;;;;;;5452718;25;19990;-69
2024/04/18 11:56:57;;;;;;;0.45;0.45;;;14.50;79.40;;;;;;5535582;25;19996;-69
2024/04/18 11:59:23;;;;;;;0.47;0.20;;;14.60;82.10;;;;;;5535563;25;19989;-69
2024/04/18 12:01:50;;;;;;;0.68;0.63;;;14.40;59.80;;;;;;5509901;25;20086;-69
2024/04/18 12:04:16;;;;;;;0.10;0.10;;;14.60;75.40;;;;;;5548546;25;19984;-69
2024/04/18 12:06:41;;;;;;;0.10;0.10;;;14.00;75.20;;;;;;5541523;25;19993;-69
2024/04/18 12:09:07;;;;;;;0.17;0.17;;;14.10;76.50;;;;;;5538531;25;19993;-69
2024/04/18 12:11:33;;;;;;;0.65;0.57;;;14.50;77.80;;;;;;5473153;25;19990;-69
2024/04/18 12:13:58;;;;;;;0.13;0.03;;;14.50;59.40;;;;;;5549392;25;19981;-70
2024/04/18 12:16:24;;;;;;;1.98;0.47;;;15.20;57.40;;;;;;5544070;25;19994;-70
2024/04/18 12:18:51;;;;;;;0.10;0.10;;;16.20;58.00;;;;;;5533879;25;20194;-70
2024/04/18 12:21:17;;;;;;;1.55;0.40;;;;;;;;;;5536441;25;20111;-70
2024/04/18 12:23:43;;;;;;;0.00;0.00;;;15.10;74.10;;;;;;5541115;25;19993;-69
2024/04/18 12:26:12;;;;;;;0.40;0.40;;;15.20;56.80;;;;;;5534985;25;20004;-70
2024/04/18 12:28:38;;;;;;;0.57;0.57;;;15.10;75.70;;;;;;5535033;25;20134;-69
2024/04/18 12:31:03;;;;;;;0.45;0.40;;;14.90;57.70;;;;;;5503828;25;19985;-69
2024/04/18 12:33:30;;;;;;;0.32;0.32;;;;;;;;;;5540352;25;20513;-69
2024/04/18 12:35:55;;;;;;;0.00;0.00;;;15.40;56.10;;;;;;5535067;25;20143;-70
2024/04/18 12:38:27;;;;;;;0.43;0.43;;;14.80;74.80;;;;;;5538067;25;19994;-69
2024/04/18 12:40:53;;;;;;;0.10;0.10;;;14.70;74.00;;;;;;5534837;25;20199;-69
2024/04/18 12:43:19;;;;;;;0.10;0.10;;;14.60;57.40;;;;;;5537904;25;19986;-69
2024/04/18 12:45:45;;;;;;;0.20;0.20;;;14.20;85.80;;;;;;5535680;25;19990;-69
2024/04/18 12:48:10;;;;;;;0.40;0.40;;;14.80;74.60;;;;;;5549412;25;20294;-69
2024/04/18 12:50:36;;;;;;;0.20;0.20;;;14.50;58.10;;;;;;5534548;25;20516;-71
2024/04/18 12:53:02;;;;;;;0.63;0.38;;;14.80;57.10;;;;;;5537087;25;19989;-70
2024/04/18 12:55:29;;;;;;;0.30;0.30;;;15.00;56.40;;;;;;5536067;25;20046;-69
2024/04/18 12:57:55;;;;;;;0.30;0.30;;;15.30;55.90;;;;;;5534835;25;20206;-71